Time;durP1;ratioP1;P1;durP2;ratioP2;P2;SDS_P1;SDS_P2;PMS_P1;PMS_P2;Temp;Humidity;BMP_temperature;BMP_pressure;BME280_temperature;BME280_humidity;BME280_pressure;Samples;Min_cycle;Max_cycle;Signal;HPM_P1;HPM_P2
2021/12/08 00:00:13;;;;;;;1.10;0.70;;;;;;;;;;5096370;28;20444;-81
2021/12/08 00:02:39;;;;;;;1.00;0.60;;;;;;;;;;5078641;28;20749;-81
2021/12/08 00:05:06;;;;;;;1.30;0.70;;;;;;;;;;5096359;28;20913;-81
2021/12/08 00:07:33;;;;;;;1.50;0.80;;;;;;;;;;5096918;28;20418;-81
2021/12/08 00:10:13;;;;;;;1.10;0.60;;;;;;;;;;5096068;28;20865;-81
2021/12/08 00:15:25;;;;;;;1.00;0.63;;;;;;;;;;5085589;28;20476;-81
2021/12/08 00:17:51;;;;;;;1.67;0.80;;;;;;;;;;5096778;28;20414;-80
2021/12/08 00:20:17;;;;;;;1.20;0.70;;;;;;;;;;5095536;28;20471;-81
2021/12/08 00:22:43;;;;;;;1.00;0.70;;;;;;;;;;5095531;28;20966;-81
2021/12/08 00:25:09;;;;;;;1.57;0.80;;;;;;;;;;5091513;28;20429;-80
2021/12/08 00:27:35;;;;;;;1.03;0.63;;;;;;;;;;5095918;28;20501;-81
2021/12/08 00:30:01;;;;;;;1.20;0.80;;;;;;;;;;5095867;28;20429;-81
2021/12/08 00:32:30;;;;;;;1.00;0.50;;;;;;;;;;5077275;28;20410;-81
2021/12/08 00:34:56;;;;;;;1.07;0.70;;;;;;;;;;5065340;28;20458;-80
2021/12/08 00:37:23;;;;;;;1.17;0.60;;;;;;;;;;5096760;28;20417;-81
2021/12/08 00:39:49;;;;;;;1.47;0.80;;;;;;;;;;5078597;28;21007;-81
2021/12/08 00:42:16;;;;;;;0.90;0.60;;;;;;;;;;5097409;28;20409;-81
2021/12/08 00:44:42;;;;;;;1.93;1.00;;;;;;;;;;5076943;28;20831;-80
2021/12/08 00:47:08;;;;;;;1.10;0.60;;;;;;;;;;5077927;28;20501;-81
2021/12/08 00:49:34;;;;;;;1.00;0.60;;;;;;;;;;5078517;28;20440;-80
2021/12/08 00:52:00;;;;;;;1.33;0.80;;;;;;;;;;5087594;28;20421;-80
2021/12/08 00:54:26;;;;;;;1.20;0.70;;;;;;;;;;5087745;28;20592;-80
2021/12/08 00:56:52;;;;;;;1.50;0.60;;;;;;;;;;5058759;28;20425;-80
2021/12/08 00:59:18;;;;;;;1.10;0.70;;;;;;;;;;5076298;28;20418;-82
2021/12/08 01:01:44;;;;;;;1.67;0.60;;;;;;;;;;5076074;28;20426;-81
2021/12/08 01:04:10;;;;;;;1.10;0.70;;;;;;;;;;5091254;28;20411;-81
2021/12/08 01:06:36;;;;;;;1.43;0.70;;;;;;;;;;5066798;28;20494;-81
2021/12/08 01:09:03;;;;;;;0.90;0.50;;;;;;;;;;5078172;28;20453;-79
2021/12/08 01:11:29;;;;;;;1.50;0.83;;;;;;;;;;5096186;28;20924;-79
2021/12/08 01:13:55;;;;;;;1.10;0.63;;;;;;;;;;5077057;28;20464;-81
2021/12/08 01:16:21;;;;;;;1.23;0.77;;;;;;;;;;5095730;28;20504;-81
2021/12/08 01:18:47;;;;;;;1.37;0.60;;;;;;;;;;5096934;28;20438;-80
2021/12/08 01:21:14;;;;;;;1.27;0.73;;;;;;;;;;5097052;28;20457;-80
2021/12/08 01:23:41;;;;;;;1.00;0.60;;;;;;;;;;5096146;28;20406;-81
2021/12/08 01:26:08;;;;;;;1.23;0.73;;;;;;;;;;5095844;28;20449;-81
2021/12/08 01:28:34;;;;;;;2.70;0.70;;;;;;;;;;5096599;28;20418;-80
2021/12/08 01:31:01;;;;;;;1.00;0.60;;;;;;;;;;5078721;28;20461;-80
2021/12/08 01:33:31;;;;;;;1.10;0.70;;;;;;;;;;5096874;28;20816;-80
2021/12/08 01:35:57;;;;;;;1.27;0.70;;;;;;;;;;5062379;28;20511;-80
2021/12/08 01:38:24;;;;;;;1.30;0.70;;;;;;;;;;5097204;28;20406;-80
2021/12/08 01:40:50;;;;;;;0.97;0.60;;;;;;;;;;5078006;28;20421;-81
2021/12/08 01:43:28;;;;;;;1.13;0.67;;;;;;;;;;5074557;28;20414;-80
2021/12/08 01:46:04;;;;;;;1.60;0.80;;;;;;;;;;5095369;28;20494;-81
2021/12/08 01:48:32;;;;;;;1.00;0.70;;;;;;;;;;5075756;28;21040;-79
2021/12/08 01:51:00;;;;;;;1.20;0.77;;;;;;;;;;5074336;28;20917;-80
2021/12/08 01:53:26;;;;;;;1.00;0.60;;;;;;;;;;5066644;28;20414;-81
2021/12/08 01:55:52;;;;;;;1.00;0.60;;;;;;;;;;5078215;28;20469;-81
2021/12/08 01:58:19;;;;;;;1.10;0.70;;;;;;;;;;5078441;28;20438;-80
2021/12/08 02:00:53;;;;;;;1.07;0.60;;;;;;;;;;5096076;28;20567;-80
2021/12/08 02:03:21;;;;;;;1.00;0.63;;;;;;;;;;5084265;28;20460;-81
2021/12/08 02:05:48;;;;;;;1.07;0.60;;;;;;;;;;5078315;28;20503;-81
2021/12/08 02:08:14;;;;;;;1.10;0.60;;;;;;;;;;5096472;28;20436;-80
2021/12/08 02:10:41;;;;;;;1.20;0.70;;;;;;;;;;5096075;28;20794;-81
2021/12/08 02:13:07;;;;;;;1.23;0.70;;;;;;;;;;5096018;28;20508;-80
2021/12/08 02:15:35;;;;;;;1.10;0.70;;;;;;;;;;5088115;28;21141;-82
2021/12/08 02:18:01;;;;;;;1.10;0.70;;;;;;;;;;5094467;28;20414;-81
2021/12/08 02:20:28;;;;;;;1.10;0.60;;;;;;;;;;5094361;28;20441;-81
2021/12/08 02:22:54;;;;;;;1.50;0.70;;;;;;;;;;5087685;28;20922;-80
2021/12/08 02:25:23;;;;;;;1.23;0.73;;;;;;;;;;5070972;28;20414;-80
2021/12/08 02:27:50;;;;;;;1.33;0.80;;;;;;;;;;5098577;28;20410;-82
2021/12/08 02:48:55;;;;;;;0.93;0.60;;;;;;;;;;5106740;28;20448;-82
2021/12/08 02:51:22;;;;;;;1.97;0.80;;;;;;;;;;5112728;28;20443;-81
2021/12/08 02:53:48;;;;;;;5.47;0.90;;;;;;;;;;5093611;28;20413;-82
2021/12/08 02:56:15;;;;;;;1.27;0.70;;;;;;;;;;5095540;28;20487;-81
2021/12/08 02:58:42;;;;;;;1.57;0.70;;;;;;;;;;5103167;28;20947;-80
2021/12/08 03:01:08;;;;;;;1.10;0.60;;;;;;;;;;5074505;28;20925;-80
2021/12/08 03:03:35;;;;;;;1.00;0.50;;;;;;;;;;5093589;28;20413;-80
2021/12/08 03:06:02;;;;;;;10.53;1.10;;;;;;;;;;5075629;28;20475;-80
2021/12/08 03:08:29;;;;;;;1.07;0.60;;;;;;;;;;5093908;28;20449;-80
2021/12/08 03:10:55;;;;;;;2.23;0.70;;;;;;;;;;5076012;28;20429;-80
2021/12/08 03:13:39;;;;;;;1.10;0.70;;;;;;;;;;5065099;28;20796;-80
2021/12/08 03:16:05;;;;;;;1.00;0.70;;;;;;;;;;5066636;28;21421;-80
2021/12/08 03:18:34;;;;;;;1.70;0.80;;;;;;;;;;5075657;28;21010;-80
2021/12/08 03:21:02;;;;;;;1.00;0.60;;;;;;;;;;5094156;28;20423;-80
2021/12/08 03:23:47;;;;;;;1.60;0.73;;;;;;;;;;5085513;28;20407;-81
2021/12/08 03:26:13;;;;;;;2.30;0.60;;;;;;;;;;5078890;28;20421;-80
2021/12/08 03:28:47;;;;;;;1.20;0.70;;;;;;;;;;5098620;28;20474;-80
2021/12/08 03:31:18;;;;;;;1.00;0.60;;;;;;;;;;5080069;28;20409;-80
2021/12/08 03:33:45;;;;;;;1.37;0.90;;;;;;;;;;5066622;28;20411;-81
2021/12/08 03:36:12;;;;;;;1.00;0.70;;;;;;;;;;5077991;28;20458;-80
2021/12/08 03:38:39;;;;;;;1.37;0.80;;;;;;;;;;5059746;28;20837;-80
2021/12/08 03:41:07;;;;;;;1.40;0.90;;;;;;;;;;5075001;28;20951;-80
2021/12/08 03:43:33;;;;;;;1.67;0.90;;;;;;;;;;5075770;28;20414;-80
2021/12/08 03:45:59;;;;;;;1.30;0.83;;;;;;;;;;5095801;28;20416;-80
2021/12/08 03:48:28;;;;;;;1.50;0.80;;;;;;;;;;5096969;28;20511;-81
2021/12/08 03:50:55;;;;;;;1.40;0.70;;;;;;;;;;5097675;28;20490;-80
2021/12/08 03:53:21;;;;;;;1.33;0.70;;;;;;;;;;5078534;28;20417;-81
2021/12/08 03:55:48;;;;;;;2.40;0.80;;;;;;;;;;5079579;28;20457;-81
2021/12/08 03:58:15;;;;;;;1.10;0.70;;;;;;;;;;5078904;28;20474;-81
2021/12/08 04:00:42;;;;;;;1.30;0.77;;;;;;;;;;5096104;28;20410;-81
2021/12/08 04:03:08;;;;;;;1.10;0.60;;;;;;;;;;5095430;28;20474;-80
2021/12/08 04:05:52;;;;;;;1.13;0.80;;;;;;;;;;5079821;28;20722;-81
2021/12/08 04:08:29;;;;;;;1.20;0.70;;;;;;;;;;5097592;28;20409;-80
2021/12/08 04:10:56;;;;;;;2.40;0.60;;;;;;;;;;5097004;28;20421;-82
2021/12/08 04:13:25;;;;;;;1.87;0.80;;;;;;;;;;5096717;28;20418;-82
2021/12/08 04:15:52;;;;;;;2.70;0.70;;;;;;;;;;5096010;28;20519;-80
2021/12/08 04:18:18;;;;;;;1.23;0.63;;;;;;;;;;5093553;28;20428;-80
2021/12/08 04:20:47;;;;;;;1.27;0.73;;;;;;;;;;5093820;28;20414;-81
2021/12/08 04:23:16;;;;;;;1.43;0.70;;;;;;;;;;5096900;28;20414;-81
2021/12/08 04:25:43;;;;;;;1.10;0.60;;;;;;;;;;5096305;28;20913;-81
2021/12/08 04:28:12;;;;;;;1.20;0.70;;;;;;;;;;5097091;28;20897;-81
2021/12/08 04:30:41;;;;;;;1.40;0.70;;;;;;;;;;5077901;28;20425;-80
2021/12/08 04:33:09;;;;;;;1.10;0.70;;;;;;;;;;5078690;28;20504;-82
2021/12/08 04:35:35;;;;;;;1.10;0.77;;;;;;;;;;5097299;28;20500;-81
2021/12/08 04:38:07;;;;;;;1.73;0.80;;;;;;;;;;5078304;28;20422;-82
2021/12/08 04:40:52;;;;;;;1.27;0.70;;;;;;;;;;5085524;28;20414;-82
2021/12/08 04:43:46;;;;;;;1.00;0.60;;;;;;;;;;5069549;28;20423;-81
2021/12/08 04:46:13;;;;;;;1.10;0.73;;;;;;;;;;5086626;28;20504;-80
2021/12/08 04:51:30;;;;;;;1.30;0.60;;;;;;;;;;5095192;28;20417;-80
2021/12/08 05:04:51;;;;;;;1.20;0.70;;;;;;;;;;5094924;28;20947;-80
2021/12/08 05:07:36;;;;;;;1.10;0.70;;;;;;;;;;5095093;28;20406;-80
2021/12/08 05:10:05;;;;;;;1.50;0.97;;;;;;;;;;5064349;28;20461;-80
2021/12/08 05:12:33;;;;;;;1.27;0.77;;;;;;;;;;5076742;28;20406;-80
2021/12/08 05:15:15;;;;;;;2.00;0.70;;;;;;;;;;5076364;28;20983;-80
2021/12/08 05:18:02;;;;;;;1.63;0.70;;;;;;;;;;5075996;28;20417;-80
2021/12/08 05:20:38;;;;;;;2.00;1.10;;;;;;;;;;5092760;28;20485;-80
2021/12/08 05:23:12;;;;;;;1.30;0.80;;;;;;;;;;5083608;28;20456;-80
2021/12/08 05:25:38;;;;;;;1.27;0.80;;;;;;;;;;5084222;28;20506;-80
2021/12/08 05:28:06;;;;;;;1.37;0.70;;;;;;;;;;5060304;28;20599;-80
2021/12/08 05:30:35;;;;;;;1.10;0.70;;;;;;;;;;5087591;28;20497;-80
2021/12/08 05:33:01;;;;;;;1.20;0.80;;;;;;;;;;5077257;28;20964;-80
2021/12/08 05:35:27;;;;;;;1.10;0.80;;;;;;;;;;5096192;28;20453;-80
2021/12/08 05:37:54;;;;;;;1.20;0.70;;;;;;;;;;5091948;28;20425;-80
2021/12/08 05:40:30;;;;;;;0.90;0.50;;;;;;;;;;5095906;28;20421;-80
2021/12/08 05:42:56;;;;;;;1.30;0.70;;;;;;;;;;5077612;28;20451;-80
2021/12/08 05:45:22;;;;;;;1.00;0.63;;;;;;;;;;5096179;28;20425;-80
2021/12/08 05:47:50;;;;;;;1.00;0.60;;;;;;;;;;5095445;28;20523;-80
2021/12/08 05:50:20;;;;;;;1.30;0.70;;;;;;;;;;5077443;28;20959;-81
2021/12/08 05:52:46;;;;;;;1.00;0.63;;;;;;;;;;5077287;28;20410;-80
2021/12/08 05:55:12;;;;;;;1.37;0.70;;;;;;;;;;5077482;28;20465;-81
2021/12/08 05:57:40;;;;;;;0.97;0.60;;;;;;;;;;5095799;28;20410;-81
2021/12/08 06:00:08;;;;;;;1.30;0.80;;;;;;;;;;5095471;28;20738;-81
2021/12/08 06:02:37;;;;;;;2.77;1.10;;;;;;;;;;5094480;28;20440;-80
2021/12/08 06:05:04;;;;;;;8.60;1.10;;;;;;;;;;5090578;28;20471;-80
2021/12/08 06:07:30;;;;;;;1.97;0.70;;;;;;;;;;5094768;28;20521;-79
2021/12/08 06:09:59;;;;;;;5.30;1.10;;;;;;;;;;5095114;28;20495;-80
2021/12/08 06:12:25;;;;;;;18.50;1.77;;;;;;;;;;5096374;28;20449;-81
2021/12/08 06:14:55;;;;;;;7.30;1.53;;;;;;;;;;5095093;28;20454;-81
2021/12/08 06:17:22;;;;;;;4.50;1.20;;;;;;;;;;5077496;28;20414;-80
2021/12/08 06:19:48;;;;;;;5.90;1.50;;;;;;;;;;5077453;28;20751;-80
2021/12/08 06:22:16;;;;;;;8.00;2.30;;;;;;;;;;5077420;28;20525;-80
2021/12/08 06:24:42;;;;;;;5.93;2.00;;;;;;;;;;5078160;28;20421;-80
2021/12/08 06:27:09;;;;;;;6.47;2.90;;;;;;;;;;5093928;28;20485;-80
2021/12/08 06:29:35;;;;;;;11.97;2.73;;;;;;;;;;5073898;28;20530;-81
2021/12/08 06:32:02;;;;;;;12.27;2.90;;;;;;;;;;5095584;28;20765;-81
2021/12/08 06:34:29;;;;;;;10.00;2.70;;;;;;;;;;5074378;28;20414;-81
2021/12/08 06:36:58;;;;;;;6.57;2.30;;;;;;;;;;5075530;28;20418;-81
2021/12/08 06:39:26;;;;;;;7.87;2.57;;;;;;;;;;5074486;28;20422;-81
2021/12/08 06:41:55;;;;;;;8.13;2.93;;;;;;;;;;5075725;28;20403;-81
2021/12/08 06:44:23;;;;;;;6.87;2.47;;;;;;;;;;5073677;28;20415;-81
2021/12/08 06:46:50;;;;;;;8.07;2.80;;;;;;;;;;5075930;28;20435;-80
2021/12/08 06:49:17;;;;;;;15.70;2.80;;;;;;;;;;5074079;28;20431;-80
2021/12/08 06:51:45;;;;;;;4.53;1.80;;;;;;;;;;5075891;28;20407;-80
2021/12/08 06:54:15;;;;;;;13.90;2.70;;;;;;;;;;5075674;28;20425;-80
2021/12/08 06:56:47;;;;;;;11.10;3.13;;;;;;;;;;5075525;28;20458;-81
2021/12/08 06:59:18;;;;;;;10.00;2.13;;;;;;;;;;5074574;28;20438;-81
2021/12/08 07:02:01;;;;;;;5.10;1.40;;;;;;;;;;5081048;28;20398;-80
2021/12/08 07:04:33;;;;;;;10.30;1.70;;;;;;;;;;5082227;28;20437;-80
2021/12/08 07:07:12;;;;;;;2.60;1.00;;;;;;;;;;5082417;28;20816;-80
2021/12/08 07:09:41;;;;;;;3.27;1.50;;;;;;;;;;5081795;28;20965;-80
2021/12/08 07:12:12;;;;;;;3.17;1.30;;;;;;;;;;5080174;28;20566;-80
2021/12/08 07:14:38;;;;;;;4.97;1.13;;;;;;;;;;5081943;28;20395;-80
2021/12/08 07:17:07;;;;;;;4.30;1.40;;;;;;;;;;5080991;28;20419;-80
2021/12/08 07:19:44;;;;;;;2.60;1.10;;;;;;;;;;5081527;28;20459;-80
2021/12/08 07:22:11;;;;;;;4.80;1.33;;;;;;;;;;5082771;28;20410;-80
2021/12/08 07:24:39;;;;;;;4.27;1.40;;;;;;;;;;5083300;28;20390;-80
2021/12/08 07:27:07;;;;;;;4.77;1.27;;;;;;;;;;5082376;28;20414;-80
2021/12/08 07:29:34;;;;;;;2.27;1.23;;;;;;;;;;5083325;28;20937;-80
2021/12/08 07:32:03;;;;;;;6.17;1.17;;;;;;;;;;5080133;28;20930;-80
2021/12/08 07:34:32;;;;;;;1.10;0.60;;;;;;;;;;5079515;28;20509;-80
2021/12/08 07:37:01;;;;;;;2.80;1.20;;;;;;;;;;5078993;28;20467;-81
2021/12/08 07:39:28;;;;;;;3.90;1.40;;;;;;;;;;5080436;28;20418;-81
2021/12/08 07:41:58;;;;;;;2.93;0.80;;;;;;;;;;5080486;28;20406;-80
2021/12/08 07:44:24;;;;;;;2.70;0.93;;;;;;;;;;5080841;28;20431;-81
2021/12/08 07:46:55;;;;;;;3.77;1.00;;;;;;;;;;5079912;28;20399;-80
2021/12/08 07:49:24;;;;;;;2.50;1.23;;;;;;;;;;5078851;28;20435;-80
2021/12/08 07:52:02;;;;;;;2.63;1.10;;;;;;;;;;5079098;28;20417;-80
2021/12/08 07:54:30;;;;;;;2.90;1.00;;;;;;;;;;5081335;28;20402;-80
2021/12/08 07:56:58;;;;;;;3.10;1.00;;;;;;;;;;5082742;28;20485;-80
2021/12/08 07:59:24;;;;;;;1.50;0.87;;;;;;;;;;5084627;28;20484;-80
2021/12/08 08:01:56;;;;;;;2.50;1.10;;;;;;;;;;5100407;28;20420;-80
2021/12/08 08:04:23;;;;;;;1.50;0.80;;;;;;;;;;5101167;28;20390;-81
2021/12/08 08:06:51;;;;;;;3.50;1.17;;;;;;;;;;5087625;28;20418;-81
2021/12/08 08:09:20;;;;;;;3.17;1.30;;;;;;;;;;5079759;28;20461;-80
2021/12/08 08:11:54;;;;;;;2.83;1.03;;;;;;;;;;5077987;28;20426;-80
2021/12/08 08:14:20;;;;;;;2.77;1.30;;;;;;;;;;5078176;28;20407;-80
2021/12/08 08:16:50;;;;;;;3.63;1.20;;;;;;;;;;5078524;28;20461;-80
2021/12/08 08:19:18;;;;;;;2.30;1.00;;;;;;;;;;5093677;28;20427;-81
2021/12/08 08:21:49;;;;;;;2.07;1.27;;;;;;;;;;5092116;28;20399;-81
2021/12/08 08:24:16;;;;;;;1.93;1.10;;;;;;;;;;5096146;28;20399;-81
2021/12/08 08:26:43;;;;;;;1.50;0.90;;;;;;;;;;5082519;28;20399;-80
2021/12/08 08:29:09;;;;;;;3.43;1.20;;;;;;;;;;5078792;28;20458;-80
2021/12/08 08:31:41;;;;;;;2.20;1.00;;;;;;;;;;5078455;28;20458;-81
2021/12/08 08:34:09;;;;;;;2.23;0.97;;;;;;;;;;5077912;28;20419;-80
2021/12/08 08:36:37;;;;;;;3.07;0.97;;;;;;;;;;5078600;28;20461;-80
2021/12/08 08:39:06;;;;;;;2.90;1.43;;;;;;;;;;5077911;28;20426;-80
2021/12/08 08:41:34;;;;;;;2.30;1.20;;;;;;;;;;5077337;28;20415;-80
2021/12/08 08:44:03;;;;;;;1.60;0.83;;;;;;;;;;5079409;28;20399;-80
2021/12/08 08:46:33;;;;;;;1.87;0.97;;;;;;;;;;5077978;28;20399;-80
2021/12/08 08:49:01;;;;;;;3.40;1.00;;;;;;;;;;5078532;28;20426;-80
2021/12/08 08:51:30;;;;;;;1.20;0.93;;;;;;;;;;5078613;28;20425;-80
2021/12/08 08:53:58;;;;;;;2.27;1.20;;;;;;;;;;5078016;28;20415;-81
2021/12/08 08:56:28;;;;;;;2.30;1.10;;;;;;;;;;5077476;28;20454;-81
2021/12/08 08:58:56;;;;;;;1.20;0.80;;;;;;;;;;5078798;28;20434;-81
2021/12/08 09:01:27;;;;;;;1.30;0.87;;;;;;;;;;5077565;28;20808;-81
2021/12/08 09:03:59;;;;;;;1.57;0.70;;;;;;;;;;5078275;28;20391;-80
2021/12/08 09:06:28;;;;;;;2.43;0.80;;;;;;;;;;5076668;28;20403;-80
2021/12/08 09:08:54;;;;;;;1.97;1.20;;;;;;;;;;5077746;28;20441;-80
2021/12/08 09:11:23;;;;;;;2.47;1.07;;;;;;;;;;5078357;28;20418;-80
2021/12/08 09:13:51;;;;;;;1.10;0.60;;;;;;;;;;5077933;28;20406;-81
2021/12/08 09:16:19;;;;;;;4.63;1.13;;;;;;;;;;5076756;28;20522;-81
2021/12/08 09:18:58;;;;;;;1.77;1.10;;;;;;;;;;5076917;28;20789;-80
2021/12/08 09:21:29;;;;;;;1.90;0.93;;;;;;;;;;5076414;28;20411;-80
2021/12/08 09:24:00;;;;;;;1.90;1.10;;;;;;;;;;5077354;28;21174;-80
2021/12/08 09:26:27;;;;;;;1.00;0.70;;;;;;;;;;5076332;28;20418;-80
2021/12/08 09:28:59;;;;;;;2.17;1.20;;;;;;;;;;5077293;28;20429;-81
2021/12/08 09:31:30;;;;;;;1.10;0.77;;;;;;;;;;5077541;28;20402;-81
2021/12/08 09:33:59;;;;;;;3.00;1.00;;;;;;;;;;5077746;28;20411;-80
2021/12/08 09:36:29;;;;;;;1.57;0.80;;;;;;;;;;5075814;28;20497;-80
2021/12/08 09:38:58;;;;;;;2.50;0.90;;;;;;;;;;5077602;28;20437;-80
2021/12/08 09:41:36;;;;;;;1.67;1.00;;;;;;;;;;5077183;28;20398;-80
2021/12/08 09:44:09;;;;;;;1.10;0.80;;;;;;;;;;5076052;28;20407;-80
2021/12/08 09:46:37;;;;;;;1.50;0.70;;;;;;;;;;5076225;28;20415;-80
2021/12/08 09:49:05;;;;;;;1.53;0.77;;;;;;;;;;5075830;28;20793;-80
2021/12/08 09:51:34;;;;;;;3.50;1.10;;;;;;;;;;5077362;28;20414;-80
2021/12/08 09:54:00;;;;;;;1.20;0.70;;;;;;;;;;5076625;28;20422;-80
2021/12/08 09:56:26;;;;;;;1.90;1.00;;;;;;;;;;5077529;28;20459;-81
2021/12/08 09:58:53;;;;;;;1.43;0.83;;;;;;;;;;5076042;28;20715;-81
2021/12/08 10:01:21;;;;;;;1.57;0.90;;;;;;;;;;5074889;28;20468;-81
2021/12/08 10:03:48;;;;;;;1.80;1.00;;;;;;;;;;5077207;28;20413;-80
2021/12/08 10:06:16;;;;;;;1.00;0.60;;;;;;;;;;5073003;28;20419;-81
2021/12/08 10:08:42;;;;;;;2.17;1.00;;;;;;;;;;5072781;28;20457;-80
2021/12/08 10:11:09;;;;;;;1.10;0.73;;;;;;;;;;5072604;28;20411;-80
2021/12/08 10:13:35;;;;;;;1.50;1.00;;;;;;;;;;5072730;28;20399;-80
2021/12/08 10:16:01;;;;;;;1.00;0.70;;;;;;;;;;5071035;28;20447;-80
2021/12/08 10:18:27;;;;;;;1.10;0.70;;;;;;;;;;5072515;28;21002;-80
2021/12/08 10:20:55;;;;;;;3.90;1.00;;;;;;;;;;5071137;28;20415;-81
2021/12/08 10:23:27;;;;;;;1.10;0.70;;;;;;;;;;5071576;28;20766;-81
2021/12/08 10:25:53;;;;;;;1.37;0.70;;;;;;;;;;5073353;28;20419;-81
2021/12/08 10:28:21;;;;;;;1.10;0.70;;;;;;;;;;5073321;28;20414;-81
2021/12/08 10:30:48;;;;;;;1.10;0.60;;;;;;;;;;5072674;28;20441;-81
2021/12/08 10:36:35;;;;;;;1.77;0.90;;;;;;;;;;5019735;28;20498;-84
2021/12/08 10:39:04;;;;;;;1.60;1.00;;;;;;;;;;5073360;28;20431;-81
2021/12/08 10:41:56;;;;;;;1.90;1.20;;;;;;;;;;5073726;28;20441;-81
2021/12/08 10:44:40;;;;;;;3.73;1.40;;;;;;;;;;5033401;28;20415;-81
2021/12/08 10:47:08;;;;;;;3.83;1.50;;;;;;;;;;5074252;28;20884;-81
2021/12/08 10:54:51;;;;;;;2.30;1.30;;;;;;;;;;5074047;28;20406;-81
2021/12/08 10:57:22;;;;;;;2.37;1.33;;;;;;;;;;5075440;28;20415;-81
2021/12/08 10:59:52;;;;;;;2.90;1.50;;;;;;;;;;5056131;28;20430;-81
2021/12/08 11:02:38;;;;;;;2.50;1.40;;;;;;;;;;5057016;28;20418;-81
2021/12/08 11:05:05;;;;;;;4.87;1.10;;;;;;;;;;5056804;28;20468;-81
2021/12/08 11:07:31;;;;;;;2.67;1.40;;;;;;;;;;5075103;28;20410;-81
2021/12/08 11:09:58;;;;;;;1.97;1.17;;;;;;;;;;5080589;28;20449;-81
2021/12/08 11:12:42;;;;;;;2.17;1.10;;;;;;;;;;5058438;28;20817;-81
2021/12/08 11:15:22;;;;;;;2.23;0.90;;;;;;;;;;5056778;28;20469;-81
2021/12/08 11:17:49;;;;;;;1.00;0.70;;;;;;;;;;5057264;28;20410;-82
2021/12/08 11:20:20;;;;;;;1.40;0.87;;;;;;;;;;5057532;28;20427;-81
2021/12/08 11:22:59;;;;;;;2.13;0.80;;;;;;;;;;5075500;28;20877;-81
2021/12/08 11:25:39;;;;;;;1.67;0.80;;;;;;;;;;5076340;28;20414;-81
2021/12/08 11:28:25;;;;;;;2.80;0.70;;;;;;;;;;5057507;28;20441;-81
2021/12/08 11:30:52;;;;;;;1.03;0.70;;;;;;;;;;5075275;28;20406;-81
2021/12/08 11:33:21;;;;;;;1.20;0.80;;;;;;;;;;5074925;28;20773;-82
2021/12/08 11:35:47;;;;;;;1.00;0.70;;;;;;;;;;5076213;28;20458;-81
2021/12/08 11:38:13;;;;;;;1.20;0.70;;;;;;;;;;5076583;28;20766;-82
2021/12/08 11:40:40;;;;;;;1.60;0.80;;;;;;;;;;5058606;28;20410;-82
2021/12/08 11:43:13;;;;;;;2.10;0.77;;;;;;;;;;5058603;28;20410;-82
2021/12/08 11:45:40;;;;;;;2.13;0.60;;;;;;;;;;5057641;28;20406;-82
2021/12/08 11:48:25;;;;;;;1.00;0.70;;;;;;;;;;5078925;28;20406;-82
2021/12/08 11:51:11;;;;;;;1.23;0.80;;;;;;;;;;5060874;28;20423;-82
2021/12/08 11:53:38;;;;;;;1.50;0.83;;;;;;;;;;5079763;28;20493;-82
2021/12/08 11:56:04;;;;;;;1.40;0.80;;;;;;;;;;5079323;28;20496;-82
2021/12/08 11:58:30;;;;;;;1.77;0.80;;;;;;;;;;5079453;28;20426;-83
2021/12/08 12:00:56;;;;;;;1.33;0.80;;;;;;;;;;5061214;28;20414;-82
2021/12/08 12:03:22;;;;;;;1.87;0.80;;;;;;;;;;5061057;28;20410;-82
2021/12/08 12:05:49;;;;;;;4.13;0.70;;;;;;;;;;5061959;28;20422;-82
2021/12/08 12:08:20;;;;;;;1.50;0.93;;;;;;;;;;5061003;28;20407;-81
2021/12/08 12:10:48;;;;;;;1.30;0.83;;;;;;;;;;5061502;28;20485;-80
2021/12/08 12:13:14;;;;;;;1.20;0.80;;;;;;;;;;5078968;28;20442;-80
2021/12/08 12:15:47;;;;;;;1.40;1.00;;;;;;;;;;5060273;28;20458;-80
2021/12/08 12:18:14;;;;;;;2.23;1.10;;;;;;;;;;5078092;28;20407;-80
2021/12/08 12:20:42;;;;;;;1.33;0.80;;;;;;;;;;5078304;28;20410;-80
2021/12/08 12:23:26;;;;;;;2.57;1.03;;;;;;;;;;5061238;28;20407;-80
2021/12/08 12:26:06;;;;;;;2.37;0.97;;;;;;;;;;5061404;28;20411;-80
2021/12/08 12:28:47;;;;;;;2.53;1.00;;;;;;;;;;5079030;28;20460;-81
2021/12/08 12:31:29;;;;;;;1.83;0.90;;;;;;;;;;5078999;28;20410;-80
2021/12/08 12:33:55;;;;;;;6.73;1.63;;;;;;;;;;5079392;28;20410;-80
2021/12/08 12:36:21;;;;;;;1.33;0.87;;;;;;;;;;5061243;28;20454;-80
2021/12/08 12:38:47;;;;;;;1.10;0.80;;;;;;;;;;5078156;28;20922;-81
2021/12/08 12:41:28;;;;;;;1.70;1.10;;;;;;;;;;5078754;28;20758;-80
2021/12/08 12:44:12;;;;;;;2.37;1.10;;;;;;;;;;5078359;28;20405;-80
2021/12/08 12:46:38;;;;;;;2.20;1.00;;;;;;;;;;5078139;28;20877;-80
2021/12/08 12:49:23;;;;;;;1.30;0.90;;;;;;;;;;5078936;28;20423;-80
2021/12/08 12:51:59;;;;;;;1.07;0.70;;;;;;;;;;5060572;28;20406;-81
2021/12/08 12:54:26;;;;;;;1.60;0.90;;;;;;;;;;5059455;28;20500;-80
2021/12/08 12:56:52;;;;;;;1.17;0.80;;;;;;;;;;5060464;28;20547;-80
2021/12/08 12:59:21;;;;;;;1.40;1.00;;;;;;;;;;5079436;28;20996;-80
2021/12/08 13:02:03;;;;;;;1.30;0.80;;;;;;;;;;5061075;28;20756;-81
2021/12/08 13:04:30;;;;;;;1.20;0.80;;;;;;;;;;5076670;28;20489;-80
2021/12/08 13:07:00;;;;;;;1.67;0.90;;;;;;;;;;5076772;28;20411;-80
2021/12/08 13:09:38;;;;;;;1.40;1.07;;;;;;;;;;5075338;28;20473;-81
2021/12/08 13:12:08;;;;;;;2.27;0.80;;;;;;;;;;5057675;28;20844;-81
2021/12/08 13:14:34;;;;;;;1.70;1.00;;;;;;;;;;5074913;28;20482;-81
2021/12/08 13:17:10;;;;;;;1.30;0.90;;;;;;;;;;5075901;28;20455;-81
2021/12/08 13:19:40;;;;;;;1.30;1.00;;;;;;;;;;5075336;28;20422;-80
2021/12/08 13:22:06;;;;;;;1.30;0.80;;;;;;;;;;5075389;28;20940;-81
2021/12/08 13:24:36;;;;;;;1.27;0.87;;;;;;;;;;5074911;28;20409;-81
2021/12/08 13:27:05;;;;;;;1.97;0.90;;;;;;;;;;5075603;28;20925;-81
2021/12/08 13:29:33;;;;;;;1.87;0.93;;;;;;;;;;5057953;28;20431;-81
2021/12/08 13:32:10;;;;;;;1.47;0.80;;;;;;;;;;5070478;28;20422;-80
2021/12/08 13:34:36;;;;;;;4.60;0.80;;;;;;;;;;5086428;28;20395;-81
2021/12/08 13:37:25;;;;;;;1.50;0.90;;;;;;;;;;5066134;28;20506;-81
2021/12/08 13:39:52;;;;;;;1.80;0.90;;;;;;;;;;5066268;28;20427;-80
2021/12/08 13:42:29;;;;;;;1.23;0.77;;;;;;;;;;5088990;28;20395;-80
2021/12/08 13:45:00;;;;;;;2.83;1.03;;;;;;;;;;5078420;28;20434;-80
2021/12/08 13:47:26;;;;;;;1.50;0.80;;;;;;;;;;5078896;28;20406;-80
2021/12/08 13:49:54;;;;;;;1.50;1.00;;;;;;;;;;5086175;28;20418;-80
2021/12/08 13:52:24;;;;;;;1.70;0.93;;;;;;;;;;5069160;28;20776;-80
2021/12/08 13:55:17;;;;;;;1.27;0.90;;;;;;;;;;5068815;28;20426;-82
2021/12/08 13:57:46;;;;;;;2.00;1.00;;;;;;;;;;5056359;28;20418;-80
2021/12/08 14:00:12;;;;;;;1.43;0.80;;;;;;;;;;5077396;28;20429;-80
2021/12/08 14:02:38;;;;;;;1.50;0.90;;;;;;;;;;5076918;28;20799;-80
2021/12/08 14:05:07;;;;;;;1.17;0.83;;;;;;;;;;5077381;28;20438;-80
2021/12/08 14:07:34;;;;;;;1.10;0.80;;;;;;;;;;5077424;28;20403;-80
2021/12/08 14:10:01;;;;;;;1.70;1.00;;;;;;;;;;5057965;28;20799;-80
2021/12/08 14:12:47;;;;;;;1.20;0.83;;;;;;;;;;5077106;28;20489;-80
2021/12/08 14:15:17;;;;;;;2.10;0.93;;;;;;;;;;5076715;28;20989;-80
2021/12/08 14:17:43;;;;;;;1.97;0.90;;;;;;;;;;5077648;28;20456;-80
2021/12/08 14:20:30;;;;;;;1.30;1.00;;;;;;;;;;5058606;28;20483;-81
2021/12/08 14:22:56;;;;;;;1.77;0.80;;;;;;;;;;5061058;28;20419;-80
2021/12/08 14:25:32;;;;;;;1.83;0.83;;;;;;;;;;5079830;28;20430;-81
2021/12/08 14:27:58;;;;;;;2.63;0.90;;;;;;;;;;5077717;28;20762;-80
2021/12/08 14:30:25;;;;;;;1.47;0.90;;;;;;;;;;5057097;28;20461;-81
2021/12/08 14:33:04;;;;;;;1.97;1.00;;;;;;;;;;5079006;28;20603;-81
2021/12/08 14:35:30;;;;;;;1.27;0.87;;;;;;;;;;5078003;28;21019;-80
2021/12/08 14:38:00;;;;;;;3.83;0.80;;;;;;;;;;5077456;28;20882;-81
2021/12/08 14:40:26;;;;;;;4.30;0.90;;;;;;;;;;5060092;28;20418;-81
2021/12/08 14:42:52;;;;;;;2.10;1.00;;;;;;;;;;5060129;28;20410;-80
2021/12/08 14:45:18;;;;;;;1.33;0.97;;;;;;;;;;5078166;28;20403;-80
2021/12/08 14:47:51;;;;;;;3.20;0.87;;;;;;;;;;5078573;28;20399;-81
2021/12/08 14:50:23;;;;;;;1.40;0.80;;;;;;;;;;5058440;28;20435;-81
2021/12/08 14:52:49;;;;;;;1.40;0.80;;;;;;;;;;5060144;28;20437;-81
2021/12/08 14:55:21;;;;;;;1.87;0.80;;;;;;;;;;5077850;28;20527;-81
2021/12/08 14:57:49;;;;;;;1.60;0.87;;;;;;;;;;5059391;28;20415;-81
2021/12/08 15:00:19;;;;;;;1.47;0.97;;;;;;;;;;5077539;28;20486;-81
2021/12/08 15:02:47;;;;;;;1.20;0.70;;;;;;;;;;5058412;28;20418;-80
2021/12/08 15:05:19;;;;;;;1.13;0.80;;;;;;;;;;5076697;28;20430;-80
2021/12/08 15:07:45;;;;;;;5.90;0.93;;;;;;;;;;5058674;28;20910;-80
2021/12/08 15:10:28;;;;;;;1.10;0.70;;;;;;;;;;5057782;28;20446;-80
2021/12/08 15:13:06;;;;;;;1.50;0.83;;;;;;;;;;5058830;28;20834;-79
2021/12/08 15:15:33;;;;;;;0.90;0.50;;;;;;;;;;5075985;28;20482;-80
2021/12/08 15:18:00;;;;;;;1.07;0.60;;;;;;;;;;5059009;28;20407;-81
2021/12/08 15:20:35;;;;;;;1.40;0.90;;;;;;;;;;5075042;28;20418;-81
2021/12/08 15:23:02;;;;;;;1.20;0.80;;;;;;;;;;5079791;28;20433;-80
2021/12/08 15:25:29;;;;;;;1.73;1.00;;;;;;;;;;5061789;28;20429;-81
2021/12/08 15:27:56;;;;;;;1.30;0.80;;;;;;;;;;5079767;28;20406;-81
2021/12/08 15:30:41;;;;;;;1.33;0.93;;;;;;;;;;5060979;28;20465;-82
2021/12/08 15:33:08;;;;;;;1.00;0.63;;;;;;;;;;5079261;28;20406;-81
2021/12/08 15:35:35;;;;;;;1.30;0.83;;;;;;;;;;5061911;28;20922;-81
2021/12/08 15:38:01;;;;;;;1.37;0.80;;;;;;;;;;5078677;28;20402;-81
2021/12/08 15:40:36;;;;;;;1.30;0.90;;;;;;;;;;5080276;28;20956;-81